sensor_id;sensor_type;location;lat;lon;timestamp;P1;durP1;ratioP1;P2;durP2;ratioP2
15812;SDS011;8007;51.404;6.304;2023-02-07T00:23:16;48.53;;;21.87;;
15812;SDS011;8007;51.404;6.304;2023-02-07T00:35:46;57.90;;;24.10;;
15812;SDS011;8007;51.404;6.304;2023-02-07T00:48:38;52.77;;;20.50;;
15812;SDS011;8007;51.404;6.304;2023-02-07T00:50:44;55.53;;;20.97;;
15812;SDS011;8007;51.404;6.304;2023-02-07T00:58:17;65.30;;;23.97;;
15812;SDS011;8007;51.404;6.304;2023-02-07T00:58:28;70.83;;;23.67;;
15812;SDS011;8007;51.404;6.304;2023-02-07T01:00:36;61.37;;;21.63;;
15812;SDS011;8007;51.404;6.304;2023-02-07T01:02:43;63.50;;;22.83;;
15812;SDS011;8007;51.404;6.304;2023-02-07T01:07:32;71.27;;;25.23;;
15812;SDS011;8007;51.404;6.304;2023-02-07T01:09:35;70.30;;;25.60;;
15812;SDS011;8007;51.404;6.304;2023-02-07T01:11:53;71.37;;;25.63;;
15812;SDS011;8007;51.404;6.304;2023-02-07T01:14:18;63.30;;;25.03;;
15812;SDS011;8007;51.404;6.304;2023-02-07T01:16:29;69.90;;;28.50;;
15812;SDS011;8007;51.404;6.304;2023-02-07T01:18:46;69.87;;;27.30;;
15812;SDS011;8007;51.404;6.304;2023-02-07T01:31:18;74.07;;;28.27;;
15812;SDS011;8007;51.404;6.304;2023-02-07T01:33:23;71.03;;;28.40;;
15812;SDS011;8007;51.404;6.304;2023-02-07T01:35:27;76.27;;;30.10;;
15812;SDS011;8007;51.404;6.304;2023-02-07T01:37:43;83.13;;;30.60;;
15812;SDS011;8007;51.404;6.304;2023-02-07T01:40:03;71.80;;;28.63;;
15812;SDS011;8007;51.404;6.304;2023-02-07T01:42:27;82.27;;;30.93;;
15812;SDS011;8007;51.404;6.304;2023-02-07T01:47:01;81.87;;;31.57;;
15812;SDS011;8007;51.404;6.304;2023-02-07T01:49:07;76.00;;;30.37;;
15812;SDS011;8007;51.404;6.304;2023-02-07T01:51:18;83.87;;;29.80;;
15812;SDS011;8007;51.404;6.304;2023-02-07T01:56:00;71.43;;;29.00;;
15812;SDS011;8007;51.404;6.304;2023-02-07T01:58:18;80.77;;;27.80;;
15812;SDS011;8007;51.404;6.304;2023-02-07T02:00:25;87.80;;;29.40;;
15812;SDS011;8007;51.404;6.304;2023-02-07T02:04:56;77.83;;;27.27;;
15812;SDS011;8007;51.404;6.304;2023-02-07T02:06:59;72.37;;;28.87;;
15812;SDS011;8007;51.404;6.304;2023-02-07T02:09:06;75.53;;;27.70;;
15812;SDS011;8007;51.404;6.304;2023-02-07T02:11:13;71.33;;;26.83;;
15812;SDS011;8007;51.404;6.304;2023-02-07T02:13:29;72.93;;;27.30;;
15812;SDS011;8007;51.404;6.304;2023-02-07T02:15:54;64.37;;;24.73;;
15812;SDS011;8007;51.404;6.304;2023-02-07T02:18:35;65.57;;;26.10;;
15812;SDS011;8007;51.404;6.304;2023-02-07T02:20:50;71.70;;;24.70;;
15812;SDS011;8007;51.404;6.304;2023-02-07T02:38:16;69.27;;;25.53;;
15812;SDS011;8007;51.404;6.304;2023-02-07T02:40:39;54.90;;;24.33;;
15812;SDS011;8007;51.404;6.304;2023-02-07T02:42:46;63.70;;;24.63;;
15812;SDS011;8007;51.404;6.304;2023-02-07T02:44:52;58.80;;;23.87;;
15812;SDS011;8007;51.404;6.304;2023-02-07T02:47:17;64.07;;;24.20;;
15812;SDS011;8007;51.404;6.304;2023-02-07T02:49:57;57.57;;;23.27;;
15812;SDS011;8007;51.404;6.304;2023-02-07T02:54:44;55.83;;;21.47;;
15812;SDS011;8007;51.404;6.304;2023-02-07T02:56:52;57.57;;;23.53;;
15812;SDS011;8007;51.404;6.304;2023-02-07T03:01:41;56.90;;;22.37;;
15812;SDS011;8007;51.404;6.304;2023-02-07T03:04:01;56.53;;;21.87;;
15812;SDS011;8007;51.404;6.304;2023-02-07T03:06:13;58.57;;;21.40;;
15812;SDS011;8007;51.404;6.304;2023-02-07T03:08:36;64.53;;;21.30;;
15812;SDS011;8007;51.404;6.304;2023-02-07T03:11:02;53.80;;;22.37;;
15812;SDS011;8007;51.404;6.304;2023-02-07T03:21:43;57.53;;;21.03;;
15812;SDS011;8007;51.404;6.304;2023-02-07T03:24:05;56.70;;;21.13;;
15812;SDS011;8007;51.404;6.304;2023-02-07T03:26:11;55.60;;;21.50;;
15812;SDS011;8007;51.404;6.304;2023-02-07T03:28:14;60.57;;;22.23;;
15812;SDS011;8007;51.404;6.304;2023-02-07T03:30:19;56.60;;;22.27;;
15812;SDS011;8007;51.404;6.304;2023-02-07T03:32:37;59.80;;;21.00;;
15812;SDS011;8007;51.404;6.304;2023-02-07T03:48:30;45.73;;;19.27;;
15812;SDS011;8007;51.404;6.304;2023-02-07T03:50:46;45.17;;;19.17;;
15812;SDS011;8007;51.404;6.304;2023-02-07T03:53:12;57.70;;;19.37;;
15812;SDS011;8007;51.404;6.304;2023-02-07T03:55:17;54.63;;;21.60;;
15812;SDS011;8007;51.404;6.304;2023-02-07T04:02:32;48.23;;;19.60;;
15812;SDS011;8007;51.404;6.304;2023-02-07T04:05:01;45.40;;;18.97;;
15812;SDS011;8007;51.404;6.304;2023-02-07T04:07:11;41.57;;;16.90;;
15812;SDS011;8007;51.404;6.304;2023-02-07T04:09:13;44.93;;;18.27;;
15812;SDS011;8007;51.404;6.304;2023-02-07T04:11:15;44.47;;;18.37;;
15812;SDS011;8007;51.404;6.304;2023-02-07T04:15:57;37.17;;;17.00;;
15812;SDS011;8007;51.404;6.304;2023-02-07T04:18:25;39.93;;;16.27;;
15812;SDS011;8007;51.404;6.304;2023-02-07T04:25:48;42.17;;;18.00;;
15812;SDS011;8007;51.404;6.304;2023-02-07T04:27:53;43.20;;;17.50;;
15812;SDS011;8007;51.404;6.304;2023-02-07T04:29:55;41.40;;;17.17;;
15812;SDS011;8007;51.404;6.304;2023-02-07T04:31:58;38.30;;;16.70;;
15812;SDS011;8007;51.404;6.304;2023-02-07T04:34:02;38.97;;;16.17;;
15812;SDS011;8007;51.404;6.304;2023-02-07T04:38:57;42.13;;;15.20;;
15812;SDS011;8007;51.404;6.304;2023-02-07T04:41:10;39.23;;;16.07;;
15812;SDS011;8007;51.404;6.304;2023-02-07T04:43:34;41.53;;;16.43;;
15812;SDS011;8007;51.404;6.304;2023-02-07T04:48:09;44.03;;;17.03;;
15812;SDS011;8007;51.404;6.304;2023-02-07T04:50:15;42.10;;;16.47;;
15812;SDS011;8007;51.404;6.304;2023-02-07T04:52:23;42.60;;;17.63;;
15812;SDS011;8007;51.404;6.304;2023-02-07T04:54:40;43.97;;;17.43;;
15812;SDS011;8007;51.404;6.304;2023-02-07T04:59:37;45.93;;;17.60;;
15812;SDS011;8007;51.404;6.304;2023-02-07T05:01:40;42.93;;;17.17;;
15812;SDS011;8007;51.404;6.304;2023-02-07T05:03:42;40.20;;;17.60;;
15812;SDS011;8007;51.404;6.304;2023-02-07T05:08:08;47.17;;;16.53;;
15812;SDS011;8007;51.404;6.304;2023-02-07T05:17:44;54.07;;;18.30;;
15812;SDS011;8007;51.404;6.304;2023-02-07T05:19:47;45.03;;;16.90;;
15812;SDS011;8007;51.404;6.304;2023-02-07T05:21:49;51.70;;;19.10;;
15812;SDS011;8007;51.404;6.304;2023-02-07T05:23:54;50.03;;;18.20;;
15812;SDS011;8007;51.404;6.304;2023-02-07T05:25:57;49.13;;;18.90;;
15812;SDS011;8007;51.404;6.304;2023-02-07T05:27:59;49.63;;;17.70;;
15812;SDS011;8007;51.404;6.304;2023-02-07T05:32:36;47.60;;;17.27;;
15812;SDS011;8007;51.404;6.304;2023-02-07T05:34:59;55.40;;;18.67;;
15812;SDS011;8007;51.404;6.304;2023-02-07T05:37:01;50.90;;;17.83;;
15812;SDS011;8007;51.404;6.304;2023-02-07T05:39:04;49.50;;;18.90;;
15812;SDS011;8007;51.404;6.304;2023-02-07T05:41:15;44.70;;;17.17;;
15812;SDS011;8007;51.404;6.304;2023-02-07T05:43:37;37.63;;;15.83;;
15812;SDS011;8007;51.404;6.304;2023-02-07T05:45:49;37.20;;;15.97;;
15812;SDS011;8007;51.404;6.304;2023-02-07T05:48:25;47.80;;;17.00;;
15812;SDS011;8007;51.404;6.304;2023-02-07T05:50:28;38.20;;;16.03;;
15812;SDS011;8007;51.404;6.304;2023-02-07T05:52:38;47.67;;;16.97;;
15812;SDS011;8007;51.404;6.304;2023-02-07T05:54:46;38.23;;;15.63;;
15812;SDS011;8007;51.404;6.304;2023-02-07T05:57:04;42.80;;;16.37;;
15812;SDS011;8007;51.404;6.304;2023-02-07T05:59:26;37.47;;;16.63;;
15812;SDS011;8007;51.404;6.304;2023-02-07T06:01:48;45.10;;;16.13;;
15812;SDS011;8007;51.404;6.304;2023-02-07T06:04:33;40.90;;;15.77;;
15812;SDS011;8007;51.404;6.304;2023-02-07T06:06:37;35.13;;;16.07;;
15812;SDS011;8007;51.404;6.304;2023-02-07T06:08:40;38.20;;;15.77;;
15812;SDS011;8007;51.404;6.304;2023-02-07T06:11:09;42.63;;;15.90;;
15812;SDS011;8007;51.404;6.304;2023-02-07T06:13:43;45.07;;;16.77;;
15812;SDS011;8007;51.404;6.304;2023-02-07T06:16:01;45.77;;;18.23;;
15812;SDS011;8007;51.404;6.304;2023-02-07T06:18:18;46.17;;;18.27;;
15812;SDS011;8007;51.404;6.304;2023-02-07T06:20:42;42.73;;;17.43;;
15812;SDS011;8007;51.404;6.304;2023-02-07T06:22:59;51.37;;;18.70;;
15812;SDS011;8007;51.404;6.304;2023-02-07T06:25:19;48.63;;;18.90;;
15812;SDS011;8007;51.404;6.304;2023-02-07T06:27:27;45.63;;;19.57;;
15812;SDS011;8007;51.404;6.304;2023-02-07T06:32:09;49.90;;;17.47;;
15812;SDS011;8007;51.404;6.304;2023-02-07T06:32:16;46.57;;;17.70;;
15812;SDS011;8007;51.404;6.304;2023-02-07T06:34:18;43.47;;;16.10;;
15812;SDS011;8007;51.404;6.304;2023-02-07T06:41:29;48.60;;;16.97;;
15812;SDS011;8007;51.404;6.304;2023-02-07T06:43:32;47.47;;;16.63;;
15812;SDS011;8007;51.404;6.304;2023-02-07T06:45:42;45.43;;;18.27;;
15812;SDS011;8007;51.404;6.304;2023-02-07T06:50:54;41.43;;;15.97;;
15812;SDS011;8007;51.404;6.304;2023-02-07T06:52:57;45.20;;;17.63;;
15812;SDS011;8007;51.404;6.304;2023-02-07T06:57:44;40.87;;;16.63;;
15812;SDS011;8007;51.404;6.304;2023-02-07T07:00:08;39.37;;;17.57;;
15812;SDS011;8007;51.404;6.304;2023-02-07T07:06:00;48.00;;;17.87;;
15812;SDS011;8007;51.404;6.304;2023-02-07T07:07:57;42.13;;;17.60;;
15812;SDS011;8007;51.404;6.304;2023-02-07T07:11:40;52.27;;;18.47;;
15812;SDS011;8007;51.404;6.304;2023-02-07T07:15:53;49.73;;;18.60;;
15812;SDS011;8007;51.404;6.304;2023-02-07T07:17:56;56.73;;;20.87;;
15812;SDS011;8007;51.404;6.304;2023-02-07T07:20:01;59.13;;;19.67;;
15812;SDS011;8007;51.404;6.304;2023-02-07T07:22:21;51.97;;;20.80;;
15812;SDS011;8007;51.404;6.304;2023-02-07T07:24:42;51.50;;;19.47;;
15812;SDS011;8007;51.404;6.304;2023-02-07T07:32:07;49.73;;;20.00;;
15812;SDS011;8007;51.404;6.304;2023-02-07T07:34:11;59.00;;;19.83;;
15812;SDS011;8007;51.404;6.304;2023-02-07T07:36:14;53.10;;;20.60;;
15812;SDS011;8007;51.404;6.304;2023-02-07T07:38:20;52.23;;;18.77;;
15812;SDS011;8007;51.404;6.304;2023-02-07T07:40:23;45.10;;;18.60;;
15812;SDS011;8007;51.404;6.304;2023-02-07T07:42:31;43.60;;;16.63;;
15812;SDS011;8007;51.404;6.304;2023-02-07T07:47:00;39.37;;;16.70;;
15812;SDS011;8007;51.404;6.304;2023-02-07T07:49:23;34.50;;;15.93;;
15812;SDS011;8007;51.404;6.304;2023-02-07T07:52:04;38.43;;;16.13;;
15812;SDS011;8007;51.404;6.304;2023-02-07T07:53:50;29.90;;;14.57;;
15812;SDS011;8007;51.404;6.304;2023-02-07T07:56:09;34.23;;;15.00;;
15812;SDS011;8007;51.404;6.304;2023-02-07T07:58:37;25.93;;;13.30;;
15812;SDS011;8007;51.404;6.304;2023-02-07T08:00:40;24.03;;;12.83;;
15812;SDS011;8007;51.404;6.304;2023-02-07T08:02:59;28.33;;;13.77;;
15812;SDS011;8007;51.404;6.304;2023-02-07T08:05:04;24.63;;;12.50;;
15812;SDS011;8007;51.404;6.304;2023-02-07T08:12:07;26.13;;;11.30;;
15812;SDS011;8007;51.404;6.304;2023-02-07T08:14:12;27.07;;;12.43;;
15812;SDS011;8007;51.404;6.304;2023-02-07T08:16:31;28.43;;;12.97;;
15812;SDS011;8007;51.404;6.304;2023-02-07T08:18:34;26.57;;;13.03;;
15812;SDS011;8007;51.404;6.304;2023-02-07T08:23:15;32.07;;;13.47;;
15812;SDS011;8007;51.404;6.304;2023-02-07T08:25:17;29.20;;;13.53;;
15812;SDS011;8007;51.404;6.304;2023-02-07T08:27:20;33.30;;;13.53;;
15812;SDS011;8007;51.404;6.304;2023-02-07T08:29:22;29.57;;;14.37;;
15812;SDS011;8007;51.404;6.304;2023-02-07T08:31:46;29.23;;;13.03;;
15812;SDS011;8007;51.404;6.304;2023-02-07T08:37:05;32.83;;;14.83;;
15812;SDS011;8007;51.404;6.304;2023-02-07T08:38:53;41.97;;;15.70;;
15812;SDS011;8007;51.404;6.304;2023-02-07T08:40:55;33.90;;;15.40;;
15812;SDS011;8007;51.404;6.304;2023-02-07T08:42:58;35.23;;;15.90;;
15812;SDS011;8007;51.404;6.304;2023-02-07T08:45:01;37.00;;;15.97;;
15812;SDS011;8007;51.404;6.304;2023-02-07T08:47:04;36.63;;;15.33;;
15812;SDS011;8007;51.404;6.304;2023-02-07T08:54:26;38.37;;;16.17;;
15812;SDS011;8007;51.404;6.304;2023-02-07T08:56:29;41.20;;;16.77;;
15812;SDS011;8007;51.404;6.304;2023-02-07T08:58:32;37.93;;;16.83;;
15812;SDS011;8007;51.404;6.304;2023-02-07T09:08:41;52.90;;;21.63;;
15812;SDS011;8007;51.404;6.304;2023-02-07T09:10:48;52.80;;;22.03;;
15812;SDS011;8007;51.404;6.304;2023-02-07T09:12:51;44.60;;;18.17;;
15812;SDS011;8007;51.404;6.304;2023-02-07T09:15:13;40.07;;;17.33;;
15812;SDS011;8007;51.404;6.304;2023-02-07T09:25:12;36.83;;;17.10;;
15812;SDS011;8007;51.404;6.304;2023-02-07T09:27:17;45.10;;;17.27;;
15812;SDS011;8007;51.404;6.304;2023-02-07T09:29:20;42.07;;;17.23;;
15812;SDS011;8007;51.404;6.304;2023-02-07T09:31:38;40.90;;;18.07;;
15812;SDS011;8007;51.404;6.304;2023-02-07T09:33:47;50.40;;;18.33;;
15812;SDS011;8007;51.404;6.304;2023-02-07T09:36:02;41.97;;;16.23;;
15812;SDS011;8007;51.404;6.304;2023-02-07T09:38:22;42.70;;;16.97;;
15812;SDS011;8007;51.404;6.304;2023-02-07T09:40:25;44.97;;;17.67;;
15812;SDS011;8007;51.404;6.304;2023-02-07T09:42:31;40.47;;;17.83;;
15812;SDS011;8007;51.404;6.304;2023-02-07T09:44:40;39.70;;;16.70;;
15812;SDS011;8007;51.404;6.304;2023-02-07T09:46:46;45.97;;;19.40;;
15812;SDS011;8007;51.404;6.304;2023-02-07T09:48:51;47.53;;;23.03;;
15812;SDS011;8007;51.404;6.304;2023-02-07T09:50:58;48.23;;;23.53;;
15812;SDS011;8007;51.404;6.304;2023-02-07T09:53:02;43.20;;;17.90;;
15812;SDS011;8007;51.404;6.304;2023-02-07T09:55:08;37.53;;;18.17;;
15812;SDS011;8007;51.404;6.304;2023-02-07T09:57:18;34.67;;;15.47;;
15812;SDS011;8007;51.404;6.304;2023-02-07T09:59:24;38.70;;;15.17;;
15812;SDS011;8007;51.404;6.304;2023-02-07T10:01:31;34.50;;;15.57;;
15812;SDS011;8007;51.404;6.304;2023-02-07T10:03:35;32.57;;;13.97;;
15812;SDS011;8007;51.404;6.304;2023-02-07T10:05:39;33.47;;;14.80;;
15812;SDS011;8007;51.404;6.304;2023-02-07T10:07:43;30.60;;;14.73;;
15812;SDS011;8007;51.404;6.304;2023-02-07T10:09:46;29.97;;;14.93;;
15812;SDS011;8007;51.404;6.304;2023-02-07T10:11:50;32.03;;;16.97;;
15812;SDS011;8007;51.404;6.304;2023-02-07T10:13:59;33.57;;;16.37;;
15812;SDS011;8007;51.404;6.304;2023-02-07T10:16:12;28.87;;;15.37;;
15812;SDS011;8007;51.404;6.304;2023-02-07T10:18:22;29.57;;;14.30;;
15812;SDS011;8007;51.404;6.304;2023-02-07T10:20:31;27.57;;;12.80;;
15812;SDS011;8007;51.404;6.304;2023-02-07T10:23:30;25.37;;;12.90;;
15812;SDS011;8007;51.404;6.304;2023-02-07T10:28:00;24.57;;;11.63;;
15812;SDS011;8007;51.404;6.304;2023-02-07T10:30:07;20.97;;;11.13;;
15812;SDS011;8007;51.404;6.304;2023-02-07T10:37:14;3.30;;;2.27;;
15812;SDS011;8007;51.404;6.304;2023-02-07T10:39:30;1271.03;;;294.53;;
15812;SDS011;8007;51.404;6.304;2023-02-07T10:41:39;1999.90;;;242.83;;
15812;SDS011;8007;51.404;6.304;2023-02-07T10:43:45;0.00;;;0.00;;
15812;SDS011;8007;51.404;6.304;2023-02-07T10:45:48;0.00;;;0.00;;
15812;SDS011;8007;51.404;6.304;2023-02-07T10:47:50;0.00;;;0.00;;
15812;SDS011;8007;51.404;6.304;2023-02-07T10:49:53;0.00;;;0.00;;
15812;SDS011;8007;51.404;6.304;2023-02-07T10:51:55;0.00;;;0.00;;
15812;SDS011;8007;51.404;6.304;2023-02-07T10:54:05;0.00;;;0.00;;
15812;SDS011;8007;51.404;6.304;2023-02-07T10:56:13;0.00;;;0.00;;
15812;SDS011;8007;51.404;6.304;2023-02-07T10:58:22;1.57;;;1.17;;
15812;SDS011;8007;51.404;6.304;2023-02-07T11:00:25;181.40;;;66.80;;
15812;SDS011;8007;51.404;6.304;2023-02-07T11:04:41;89.83;;;86.10;;
15812;SDS011;8007;51.404;6.304;2023-02-07T11:06:44;0.00;;;0.00;;
15812;SDS011;8007;51.404;6.304;2023-02-07T11:08:46;0.00;;;0.00;;
15812;SDS011;8007;51.404;6.304;2023-02-07T11:10:51;1999.90;;;999.90;;
15812;SDS011;8007;51.404;6.304;2023-02-07T11:12:54;1999.90;;;999.90;;
15812;SDS011;8007;51.404;6.304;2023-02-07T11:15:00;1999.90;;;999.90;;
15812;SDS011;8007;51.404;6.304;2023-02-07T11:17:03;1999.90;;;999.90;;
15812;SDS011;8007;51.404;6.304;2023-02-07T11:19:06;0.00;;;0.00;;
15812;SDS011;8007;51.404;6.304;2023-02-07T11:21:18;519.43;;;504.17;;
15812;SDS011;8007;51.404;6.304;2023-02-07T11:23:23;1999.90;;;999.90;;
15812;SDS011;8007;51.404;6.304;2023-02-07T11:25:29;1999.90;;;999.90;;
15812;SDS011;8007;51.404;6.304;2023-02-07T11:27:36;1999.90;;;999.90;;
15812;SDS011;8007;51.404;6.304;2023-02-07T11:29:43;1999.90;;;999.90;;
15812;SDS011;8007;51.404;6.304;2023-02-07T11:31:45;1999.90;;;999.90;;
15812;SDS011;8007;51.404;6.304;2023-02-07T11:33:48;1999.90;;;999.90;;
15812;SDS011;8007;51.404;6.304;2023-02-07T11:36:05;1999.90;;;999.90;;
15812;SDS011;8007;51.404;6.304;2023-02-07T11:38:11;1999.90;;;999.90;;
15812;SDS011;8007;51.404;6.304;2023-02-07T11:40:16;1999.90;;;999.90;;
15812;SDS011;8007;51.404;6.304;2023-02-07T11:42:21;1999.90;;;999.90;;
15812;SDS011;8007;51.404;6.304;2023-02-07T11:44:26;1999.90;;;999.90;;
15812;SDS011;8007;51.404;6.304;2023-02-07T11:46:30;1999.90;;;999.90;;
15812;SDS011;8007;51.404;6.304;2023-02-07T11:48:37;1999.90;;;999.90;;
15812;SDS011;8007;51.404;6.304;2023-02-07T11:50:41;1999.90;;;999.90;;
15812;SDS011;8007;51.404;6.304;2023-02-07T11:52:48;1999.90;;;999.90;;
15812;SDS011;8007;51.404;6.304;2023-02-07T11:54:53;1999.90;;;999.90;;
15812;SDS011;8007;51.404;6.304;2023-02-07T11:56:59;1999.90;;;999.90;;
15812;SDS011;8007;51.404;6.304;2023-02-07T11:59:02;1999.90;;;999.90;;
15812;SDS011;8007;51.404;6.304;2023-02-07T12:01:13;1999.90;;;999.90;;
15812;SDS011;8007;51.404;6.304;2023-02-07T12:03:17;1999.90;;;999.90;;
15812;SDS011;8007;51.404;6.304;2023-02-07T12:05:23;1999.90;;;999.90;;
15812;SDS011;8007;51.404;6.304;2023-02-07T12:07:30;1999.90;;;999.90;;
15812;SDS011;8007;51.404;6.304;2023-02-07T12:09:34;1999.90;;;999.90;;
15812;SDS011;8007;51.404;6.304;2023-02-07T12:11:52;1999.90;;;999.90;;
15812;SDS011;8007;51.404;6.304;2023-02-07T12:13:57;1999.90;;;999.90;;
15812;SDS011;8007;51.404;6.304;2023-02-07T12:16:02;1999.90;;;999.90;;
15812;SDS011;8007;51.404;6.304;2023-02-07T12:18:12;1999.90;;;999.90;;
15812;SDS011;8007;51.404;6.304;2023-02-07T12:20:19;1999.90;;;999.90;;
15812;SDS011;8007;51.404;6.304;2023-02-07T12:22:24;1999.90;;;999.90;;
15812;SDS011;8007;51.404;6.304;2023-02-07T12:24:29;1999.90;;;999.90;;
15812;SDS011;8007;51.404;6.304;2023-02-07T12:26:36;1999.90;;;999.90;;
15812;SDS011;8007;51.404;6.304;2023-02-07T12:28:39;1999.90;;;999.90;;
15812;SDS011;8007;51.404;6.304;2023-02-07T12:30:45;1999.90;;;999.90;;
15812;SDS011;8007;51.404;6.304;2023-02-07T12:32:50;1999.90;;;999.90;;
15812;SDS011;8007;51.404;6.304;2023-02-07T12:34:59;1999.90;;;999.90;;
15812;SDS011;8007;51.404;6.304;2023-02-07T12:37:04;1999.90;;;999.90;;
15812;SDS011;8007;51.404;6.304;2023-02-07T12:39:11;1999.90;;;999.90;;
15812;SDS011;8007;51.404;6.304;2023-02-07T12:41:17;1999.90;;;999.90;;
15812;SDS011;8007;51.404;6.304;2023-02-07T12:43:21;1999.90;;;999.90;;
15812;SDS011;8007;51.404;6.304;2023-02-07T12:45:27;1999.90;;;999.90;;
15812;SDS011;8007;51.404;6.304;2023-02-07T12:47:36;1999.90;;;999.90;;
15812;SDS011;8007;51.404;6.304;2023-02-07T12:49:48;1999.90;;;999.90;;
15812;SDS011;8007;51.404;6.304;2023-02-07T12:51:58;1999.90;;;999.90;;
15812;SDS011;8007;51.404;6.304;2023-02-07T12:54:06;1999.90;;;999.90;;
15812;SDS011;8007;51.404;6.304;2023-02-07T12:56:16;1999.90;;;999.90;;
15812;SDS011;8007;51.404;6.304;2023-02-07T12:58:26;1999.90;;;999.90;;
15812;SDS011;8007;51.404;6.304;2023-02-07T13:00:31;1999.90;;;999.90;;
15812;SDS011;8007;51.404;6.304;2023-02-07T13:02:37;1999.90;;;999.90;;
15812;SDS011;8007;51.404;6.304;2023-02-07T13:07:03;1999.90;;;999.90;;
15812;SDS011;8007;51.404;6.304;2023-02-07T13:09:09;1999.90;;;999.90;;
15812;SDS011;8007;51.404;6.304;2023-02-07T13:11:18;1999.90;;;999.90;;
15812;SDS011;8007;51.404;6.304;2023-02-07T13:13:22;1999.90;;;999.90;;
15812;SDS011;8007;51.404;6.304;2023-02-07T13:15:29;1999.90;;;999.90;;
15812;SDS011;8007;51.404;6.304;2023-02-07T13:17:42;1999.90;;;999.90;;
15812;SDS011;8007;51.404;6.304;2023-02-07T13:19:49;1999.90;;;999.90;;
15812;SDS011;8007;51.404;6.304;2023-02-07T13:21:55;1999.90;;;999.90;;
15812;SDS011;8007;51.404;6.304;2023-02-07T13:24:01;1999.90;;;999.90;;
15812;SDS011;8007;51.404;6.304;2023-02-07T13:26:08;1999.90;;;999.90;;
15812;SDS011;8007;51.404;6.304;2023-02-07T13:28:11;1999.90;;;999.90;;
15812;SDS011;8007;51.404;6.304;2023-02-07T13:30:17;1999.90;;;999.90;;
15812;SDS011;8007;51.404;6.304;2023-02-07T13:32:20;1999.90;;;999.90;;
15812;SDS011;8007;51.404;6.304;2023-02-07T13:34:25;1999.90;;;999.90;;
15812;SDS011;8007;51.404;6.304;2023-02-07T13:36:30;1999.90;;;999.90;;
15812;SDS011;8007;51.404;6.304;2023-02-07T13:38:38;1999.90;;;999.90;;
15812;SDS011;8007;51.404;6.304;2023-02-07T13:40:49;1999.90;;;999.90;;
15812;SDS011;8007;51.404;6.304;2023-02-07T13:42:55;1999.90;;;999.90;;
15812;SDS011;8007;51.404;6.304;2023-02-07T13:45:02;1999.90;;;999.90;;
15812;SDS011;8007;51.404;6.304;2023-02-07T13:47:15;1999.90;;;999.90;;
15812;SDS011;8007;51.404;6.304;2023-02-07T13:49:20;1999.90;;;999.90;;
15812;SDS011;8007;51.404;6.304;2023-02-07T13:51:27;1999.90;;;999.90;;
15812;SDS011;8007;51.404;6.304;2023-02-07T13:53:34;1999.90;;;999.90;;
15812;SDS011;8007;51.404;6.304;2023-02-07T13:55:40;1999.90;;;999.90;;
15812;SDS011;8007;51.404;6.304;2023-02-07T13:57:45;1999.90;;;999.90;;
15812;SDS011;8007;51.404;6.304;2023-02-07T14:00:07;1999.90;;;999.90;;
15812;SDS011;8007;51.404;6.304;2023-02-07T14:02:16;1999.90;;;999.90;;
15812;SDS011;8007;51.404;6.304;2023-02-07T14:04:19;1999.90;;;999.90;;
15812;SDS011;8007;51.404;6.304;2023-02-07T14:06:24;1999.90;;;999.90;;
15812;SDS011;8007;51.404;6.304;2023-02-07T14:08:27;1999.90;;;999.90;;
15812;SDS011;8007;51.404;6.304;2023-02-07T14:10:42;1999.90;;;999.90;;
15812;SDS011;8007;51.404;6.304;2023-02-07T14:12:46;1999.90;;;999.90;;
15812;SDS011;8007;51.404;6.304;2023-02-07T14:14:49;1999.90;;;999.90;;
15812;SDS011;8007;51.404;6.304;2023-02-07T14:16:53;1999.90;;;999.90;;
15812;SDS011;8007;51.404;6.304;2023-02-07T14:18:56;1999.90;;;999.90;;
15812;SDS011;8007;51.404;6.304;2023-02-07T14:20:59;1999.90;;;999.90;;
15812;SDS011;8007;51.404;6.304;2023-02-07T14:23:03;1999.90;;;999.90;;
15812;SDS011;8007;51.404;6.304;2023-02-07T14:25:21;1999.90;;;999.90;;
15812;SDS011;8007;51.404;6.304;2023-02-07T14:27:25;1999.90;;;999.90;;
15812;SDS011;8007;51.404;6.304;2023-02-07T14:29:39;1999.90;;;999.90;;
15812;SDS011;8007;51.404;6.304;2023-02-07T14:31:46;1999.90;;;999.90;;
15812;SDS011;8007;51.404;6.304;2023-02-07T14:36:17;1999.90;;;999.90;;
15812;SDS011;8007;51.404;6.304;2023-02-07T14:38:26;1999.90;;;999.90;;
15812;SDS011;8007;51.404;6.304;2023-02-07T14:40:32;1999.90;;;999.90;;
15812;SDS011;8007;51.404;6.304;2023-02-07T14:42:35;1999.90;;;999.90;;
15812;SDS011;8007;51.404;6.304;2023-02-07T14:44:41;1999.90;;;999.90;;
15812;SDS011;8007;51.404;6.304;2023-02-07T14:46:46;1999.90;;;999.90;;
15812;SDS011;8007;51.404;6.304;2023-02-07T14:48:50;1999.90;;;999.90;;
15812;SDS011;8007;51.404;6.304;2023-02-07T14:50:53;1999.90;;;999.90;;
15812;SDS011;8007;51.404;6.304;2023-02-07T14:52:57;1999.90;;;999.90;;
15812;SDS011;8007;51.404;6.304;2023-02-07T14:54:59;1999.90;;;999.90;;
15812;SDS011;8007;51.404;6.304;2023-02-07T14:57:04;1999.90;;;999.90;;
15812;SDS011;8007;51.404;6.304;2023-02-07T14:59:08;1999.90;;;999.90;;
15812;SDS011;8007;51.404;6.304;2023-02-07T15:01:16;1999.90;;;999.90;;
15812;SDS011;8007;51.404;6.304;2023-02-07T15:03:19;1999.90;;;999.90;;
15812;SDS011;8007;51.404;6.304;2023-02-07T15:05:23;1999.90;;;999.90;;
15812;SDS011;8007;51.404;6.304;2023-02-07T15:07:26;1999.90;;;999.90;;
15812;SDS011;8007;51.404;6.304;2023-02-07T15:09:28;1999.90;;;999.90;;
15812;SDS011;8007;51.404;6.304;2023-02-07T15:11:30;1999.90;;;999.90;;
15812;SDS011;8007;51.404;6.304;2023-02-07T15:13:33;1999.90;;;999.90;;
15812;SDS011;8007;51.404;6.304;2023-02-07T15:15:41;1999.90;;;999.90;;
15812;SDS011;8007;51.404;6.304;2023-02-07T15:17:47;1999.90;;;999.90;;
15812;SDS011;8007;51.404;6.304;2023-02-07T15:19:50;1999.90;;;999.90;;
15812;SDS011;8007;51.404;6.304;2023-02-07T15:21:55;1999.90;;;999.90;;
15812;SDS011;8007;51.404;6.304;2023-02-07T15:23:57;1999.90;;;999.90;;
15812;SDS011;8007;51.404;6.304;2023-02-07T15:26:02;1999.90;;;999.90;;
15812;SDS011;8007;51.404;6.304;2023-02-07T15:28:16;1999.90;;;999.90;;
15812;SDS011;8007;51.404;6.304;2023-02-07T15:30:19;1999.90;;;999.90;;
15812;SDS011;8007;51.404;6.304;2023-02-07T15:32:23;1999.90;;;999.90;;
15812;SDS011;8007;51.404;6.304;2023-02-07T15:34:31;1999.90;;;999.90;;
15812;SDS011;8007;51.404;6.304;2023-02-07T15:36:35;1999.90;;;999.90;;
15812;SDS011;8007;51.404;6.304;2023-02-07T15:38:37;1999.90;;;999.90;;
15812;SDS011;8007;51.404;6.304;2023-02-07T15:40:40;1999.90;;;999.90;;
15812;SDS011;8007;51.404;6.304;2023-02-07T15:42:49;1999.90;;;999.90;;
15812;SDS011;8007;51.404;6.304;2023-02-07T15:44:52;1999.90;;;999.90;;
15812;SDS011;8007;51.404;6.304;2023-02-07T15:46:55;1999.90;;;999.90;;
15812;SDS011;8007;51.404;6.304;2023-02-07T15:48:58;1999.90;;;999.90;;
15812;SDS011;8007;51.404;6.304;2023-02-07T15:51:02;1999.90;;;999.90;;
15812;SDS011;8007;51.404;6.304;2023-02-07T15:53:05;1999.90;;;999.90;;
15812;SDS011;8007;51.404;6.304;2023-02-07T15:55:13;1999.90;;;999.90;;
15812;SDS011;8007;51.404;6.304;2023-02-07T15:57:20;1999.90;;;999.90;;
15812;SDS011;8007;51.404;6.304;2023-02-07T15:59:22;1999.90;;;999.90;;
15812;SDS011;8007;51.404;6.304;2023-02-07T16:01:26;1999.90;;;999.90;;
15812;SDS011;8007;51.404;6.304;2023-02-07T16:03:30;1999.90;;;999.90;;
15812;SDS011;8007;51.404;6.304;2023-02-07T16:05:37;1999.90;;;999.90;;
15812;SDS011;8007;51.404;6.304;2023-02-07T16:07:42;1999.90;;;999.90;;